Glencove, Washington
Current Conditions -  °F | °C
As of 1:53 AM on Sunday 21 Dec 2014 (Local Time) from KTIW Reporting Station
Clear Clear  
Wind Chill: 11°   Ceiling: Unl
Heat Index: 11°   Visibility: 10mi
Dew Point:   Wind: 15mph
Humidity: 80%   Direction: 220°SW
Pressure: 29.67"   Gusts: 26mph
Location:  47.2986°N, 122.616°W
Report Text: KTIW 210953Z AUTO 22013G23KT 10SM CLR 11/08 A2967 RMK AO2 SLP047 T01110078
Loading
Personal Weather Stations






























Interactive Weather Map New forecast layout! Learn more

10-Day Weather Forecast

Advertisements
Track Severe Weather on mobile